Time;durP1;ratioP1;P1;durP2;ratioP2;P2;SDS_P1;SDS_P2;PMS_P1;PMS_P2;Temp;Humidity;BMP_temperature;BMP_pressure;BME280_temperature;BME280_humidity;BME280_pressure;Samples;Min_cycle;Max_cycle;Signal;HPM_P1;HPM_P2
2021/05/14 00:00:34;;;;;;;4.15;1.90;;;;;;;10.28;82.76;98232.25;5132335;27;20088;-94
2021/05/14 00:03:00;;;;;;;5.60;2.03;;;;;;;10.47;81.83;98251.09;5134227;27;20047;-94
2021/05/14 00:05:25;;;;;;;6.90;2.20;;;;;;;10.55;81.13;98242.88;5133906;27;20096;-94
2021/05/14 00:07:52;;;;;;;2.75;1.67;;;;;;;10.62;81.48;98247.03;5141184;27;20051;-93
2021/05/14 00:10:21;;;;;;;4.70;2.00;;;;;;;10.65;82.27;98255.78;5153499;27;20400;-94
2021/05/14 00:15:46;;;;;;;5.20;1.80;;;;;;;10.75;82.38;98252.78;5132492;27;20344;-94
2021/05/14 00:18:12;;;;;;;6.55;2.00;;;;;;;10.68;82.00;98242.34;5132851;28;20051;-94
2021/05/14 00:20:38;;;;;;;5.15;2.13;;;;;;;10.64;82.49;98229.22;5132615;28;20111;-95
2021/05/14 00:23:05;;;;;;;8.23;2.10;;;;;;;10.69;82.23;98244.13;5132533;28;20108;-94
2021/05/14 00:25:31;;;;;;;4.70;2.22;;;;;;;10.65;82.75;98225.66;5132681;28;20097;-94
2021/05/14 00:27:57;;;;;;;5.97;2.67;;;;;;;10.74;83.12;98243.94;5132349;28;20035;-94
2021/05/14 00:30:23;;;;;;;8.73;2.40;;;;;;;10.63;83.60;98230.16;5132567;28;20082;-95
2021/05/14 00:32:49;;;;;;;5.55;2.40;;;;;;;10.70;83.46;98239.66;5134647;28;20059;-93
2021/05/14 00:35:15;;;;;;;5.70;2.22;;;;;;;10.77;82.73;98240.31;5134406;28;20130;-95
2021/05/14 00:37:42;;;;;;;5.85;2.30;;;;;;;10.71;82.47;98246.69;5134632;28;20574;-93
2021/05/14 00:40:08;;;;;;;3.05;1.85;;;;;;;10.54;82.92;98225.16;5133795;27;20043;-96
2021/05/14 00:42:34;;;;;;;5.35;1.95;;;;;;;10.53;82.26;98226.97;5132638;28;20067;-93
2021/05/14 00:45:00;;;;;;;4.30;2.20;;;;;;;10.55;82.34;98227.78;5134059;28;20039;-94
2021/05/14 00:47:26;;;;;;;6.53;2.15;;;;;;;10.60;83.31;98243.56;5134143;28;20051;-95
2021/05/14 00:49:53;;;;;;;6.78;2.45;;;;;;;10.47;83.07;98238.69;5134187;28;20046;-93
2021/05/14 00:52:20;;;;;;;5.45;2.72;;;;;;;10.39;83.44;98224.78;5133896;28;20050;-95
2021/05/14 00:54:47;;;;;;;5.78;1.90;;;;;;;10.50;83.81;98239.50;5133882;27;20071;-94
2021/05/14 00:57:15;;;;;;;5.43;2.13;;;;;;;10.56;83.95;98249.91;5134080;27;20035;-94
2021/05/14 00:59:42;;;;;;;8.77;2.80;;;;;;;10.39;83.83;98221.28;5134156;27;20055;-93
2021/05/14 01:02:08;;;;;;;6.93;2.28;;;;;;;10.52;84.06;98240.28;5133878;28;20043;-94
2021/05/14 01:04:34;;;;;;;8.95;2.33;;;;;;;10.48;83.63;98226.25;5133486;27;20502;-93
2021/05/14 01:07:01;;;;;;;6.15;2.30;;;;;;;10.55;83.69;98238.41;5133500;28;20043;-94
2021/05/14 01:09:27;;;;;;;7.80;2.42;;;;;;;10.41;83.48;98214.97;5133893;27;20023;-93
2021/05/14 01:11:53;;;;;;;5.80;2.33;;;;;;;10.41;83.29;98214.09;5133479;28;20131;-94
2021/05/14 01:14:19;;;;;;;4.85;2.20;;;;;;;10.42;83.36;98218.50;5132463;27;20047;-94
2021/05/14 01:16:45;;;;;;;6.70;2.10;;;;;;;10.40;83.59;98207.06;5132219;27;20458;-96
2021/05/14 01:19:11;;;;;;;6.55;2.10;;;;;;;10.45;83.82;98227.25;5131561;28;20138;-93
2021/05/14 01:21:38;;;;;;;8.07;2.30;;;;;;;10.32;83.10;98199.34;5131563;28;20449;-95
2021/05/14 01:24:05;;;;;;;5.50;1.92;;;;;;;10.36;83.60;98205.41;5131645;28;20039;-94
2021/05/14 01:26:31;;;;;;;7.80;2.20;;;;;;;10.40;83.53;98221.19;5120711;28;20039;-94
2021/05/14 01:28:58;;;;;;;6.00;2.15;;;;;;;10.35;83.40;98217.00;5117743;28;20467;-93
2021/05/14 01:31:24;;;;;;;8.80;2.10;;;;;;;10.31;83.67;98213.56;5119427;28;20542;-95
2021/05/14 01:33:50;;;;;;;5.88;2.00;;;;;;;10.11;83.61;98200.94;5119443;28;20043;-94
2021/05/14 01:36:18;;;;;;;6.25;2.20;;;;;;;9.98;84.22;98207.59;5119812;28;20068;-95
2021/05/14 01:38:45;;;;;;;3.70;1.85;;;;;;;9.99;84.50;98223.44;5118612;28;20039;-95
2021/05/14 01:41:11;;;;;;;6.18;2.30;;;;;;;9.83;84.45;98208.97;5118618;28;20044;-95
2021/05/14 01:43:37;;;;;;;7.55;2.58;;;;;;;9.93;84.08;98231.66;5118420;28;20062;-95
2021/05/14 01:46:04;;;;;;;5.15;2.25;;;;;;;9.89;84.24;98224.69;5117357;28;20139;-94
2021/05/14 01:48:30;;;;;;;5.63;2.53;;;;;;;10.10;84.00;98238.19;5117332;28;20036;-94
2021/05/14 01:50:57;;;;;;;4.80;2.28;;;;;;;10.00;84.52;98232.31;5117396;28;20051;-93
2021/05/14 01:53:23;;;;;;;9.18;2.30;;;;;;;10.19;84.50;98246.72;5117518;28;20042;-95
2021/05/14 01:55:50;;;;;;;6.32;2.40;;;;;;;10.08;85.04;98223.16;5117231;28;20396;-95
2021/05/14 01:58:15;;;;;;;6.20;2.00;;;;;;;10.24;85.16;98228.81;5117144;28;20120;-94
2021/05/14 02:00:41;;;;;;;5.75;2.30;;;;;;;10.38;84.11;98232.81;5117193;28;20055;-94
2021/05/14 02:03:07;;;;;;;6.90;2.50;;;;;;;10.43;84.19;98231.75;5117198;28;20042;-93
2021/05/14 02:05:33;;;;;;;6.75;1.92;;;;;;;10.47;84.51;98232.47;5117161;28;20035;-92
2021/05/14 02:07:59;;;;;;;7.60;2.55;;;;;;;10.52;83.92;98224.34;5117019;28;20040;-94
2021/05/14 02:10:25;;;;;;;6.80;2.50;;;;;;;10.43;84.66;98206.94;5116924;28;20050;-94
2021/05/14 02:12:52;;;;;;;9.50;2.30;;;;;;;10.36;84.00;98206.28;5117123;28;20069;-94
2021/05/14 02:15:18;;;;;;;6.47;2.13;;;;;;;10.44;82.96;98219.31;5116491;28;20054;-93
2021/05/14 02:17:44;;;;;;;8.45;2.40;;;;;;;10.42;83.05;98213.19;5116838;28;20044;-93
2021/05/14 02:20:12;;;;;;;5.82;2.50;;;;;;;10.49;82.93;98230.66;5116750;28;20480;-93
2021/05/14 02:22:38;;;;;;;6.78;2.50;;;;;;;10.40;83.10;98221.19;5116969;28;20044;-93
2021/05/14 02:25:05;;;;;;;7.30;2.67;;;;;;;10.48;82.59;98212.97;5117257;28;20038;-93
2021/05/14 02:27:32;;;;;;;4.82;2.10;;;;;;;10.44;82.21;98217.53;5116674;28;20046;-93
2021/05/14 02:30:00;;;;;;;6.57;2.63;;;;;;;10.40;82.49;98209.72;5116562;28;20051;-93
2021/05/14 02:32:26;;;;;;;7.80;2.70;;;;;;;10.41;82.80;98212.31;5116455;28;20046;-93
2021/05/14 02:34:51;;;;;;;7.45;2.50;;;;;;;10.44;83.25;98228.16;5116444;28;20056;-94
2021/05/14 02:37:17;;;;;;;7.90;2.40;;;;;;;10.42;83.29;98218.50;5115750;28;20389;-94
2021/05/14 02:39:43;;;;;;;6.35;2.40;;;;;;;10.48;83.48;98232.44;5117966;28;20039;-93
2021/05/14 02:42:09;;;;;;;12.40;2.58;;;;;;;10.51;83.75;98225.28;5118703;28;20040;-92
2021/05/14 02:44:35;;;;;;;7.70;2.17;;;;;;;10.45;83.66;98213.06;5119823;28;20035;-94
2021/05/14 02:47:02;;;;;;;7.80;2.53;;;;;;;10.50;84.45;98215.59;5119195;28;20039;-92
2021/05/14 02:49:28;;;;;;;8.55;2.35;;;;;;;10.56;84.36;98223.31;5118007;28;20020;-94
2021/05/14 02:51:54;;;;;;;8.23;2.97;;;;;;;10.53;83.94;98199.50;5120414;28;20131;-93
2021/05/14 02:54:20;;;;;;;6.95;2.40;;;;;;;10.52;83.68;98190.69;5117554;28;20043;-94
2021/05/14 02:56:46;;;;;;;6.35;2.83;;;;;;;10.68;83.65;98212.25;5117095;28;20091;-94
2021/05/14 02:59:12;;;;;;;7.15;2.92;;;;;;;10.58;83.38;98202.88;5117968;28;20044;-93
2021/05/14 03:01:38;;;;;;;7.05;3.13;;;;;;;10.55;83.20;98211.81;5117851;28;20046;-93
2021/05/14 03:04:05;;;;;;;7.95;2.65;;;;;;;10.59;83.21;98220.56;5117839;28;20047;-93
2021/05/14 03:06:32;;;;;;;7.40;3.05;;;;;;;10.69;83.75;98212.19;5117983;28;20481;-93
2021/05/14 03:08:58;;;;;;;8.30;2.55;;;;;;;10.56;83.54;98189.66;5117737;28;20489;-94
2021/05/14 03:11:24;;;;;;;5.97;2.33;;;;;;;10.70;83.65;98215.72;5117792;28;20481;-92
2021/05/14 03:13:50;;;;;;;8.77;3.10;;;;;;;10.67;83.52;98219.38;5117392;28;20055;-93
2021/05/14 03:16:16;;;;;;;6.25;2.83;;;;;;;10.57;83.62;98219.75;5117378;28;20047;-92
2021/05/14 03:18:42;;;;;;;6.47;2.75;;;;;;;10.52;83.50;98209.28;5117396;28;20070;-93
2021/05/14 03:21:09;;;;;;;7.35;2.72;;;;;;;10.53;84.09;98199.50;5116330;28;20063;-94
2021/05/14 03:23:34;;;;;;;8.10;2.63;;;;;;;10.59;83.35;98208.13;5116328;28;20043;-94
2021/05/14 03:26:00;;;;;;;6.95;2.80;;;;;;;10.55;83.22;98214.47;5115984;28;20044;-94
2021/05/14 03:28:26;;;;;;;6.68;2.90;;;;;;;10.63;83.59;98232.84;5115440;28;20088;-93
2021/05/14 03:30:54;;;;;;;7.43;2.63;;;;;;;10.59;83.33;98231.19;5116044;28;20541;-93
2021/05/14 03:33:21;;;;;;;9.90;3.10;;;;;;;10.63;83.56;98235.50;5116172;28;20048;-92
2021/05/14 03:35:47;;;;;;;5.85;2.70;;;;;;;10.66;83.73;98241.53;5116140;28;20280;-94
2021/05/14 03:38:14;;;;;;;10.43;2.95;;;;;;;10.54;84.04;98223.41;5115843;28;20491;-94
2021/05/14 03:40:41;;;;;;;7.22;2.85;;;;;;;10.60;84.28;98220.50;5115910;28;20043;-94
2021/05/14 03:43:07;;;;;;;8.07;2.88;;;;;;;10.70;84.19;98234.34;5116020;28;20496;-93
2021/05/14 03:45:34;;;;;;;9.52;2.72;;;;;;;10.71;83.79;98241.38;5116029;28;20044;-94
2021/05/14 03:48:00;;;;;;;7.28;2.33;;;;;;;10.62;83.50;98223.09;5115816;28;20055;-94
2021/05/14 03:50:31;;;;;;;9.02;2.70;;;;;;;10.71;83.61;98249.34;5115970;28;20047;-94
2021/05/14 03:52:58;;;;;;;6.40;2.55;;;;;;;10.70;83.55;98247.63;5115755;28;20070;-95
2021/05/14 03:55:25;;;;;;;9.07;2.90;;;;;;;10.60;83.54;98235.59;5116141;28;20362;-94
2021/05/14 03:57:51;;;;;;;10.35;3.70;;;;;;;10.71;84.03;98252.00;5116357;28;20026;-93
2021/05/14 04:00:18;;;;;;;11.20;3.50;;;;;;;10.65;83.61;98246.94;5115541;28;20045;-94
2021/05/14 04:02:44;;;;;;;10.05;3.28;;;;;;;10.66;83.74;98261.97;5115857;28;20044;-92
2021/05/14 04:05:11;;;;;;;9.98;3.05;;;;;;;10.66;84.25;98254.84;5115528;28;20488;-93
2021/05/14 04:07:37;;;;;;;7.88;3.47;;;;;;;10.58;84.39;98245.41;5115873;28;20042;-94
2021/05/14 04:10:12;;;;;;;10.10;3.42;;;;;;;10.56;84.01;98252.56;5115691;28;20478;-93
2021/05/14 04:15:23;;;;;;;9.40;3.17;;;;;;;10.66;83.64;98257.50;5113583;27;20349;-94
2021/05/14 04:17:49;;;;;;;10.88;3.10;;;;;;;10.60;84.19;98262.16;5113205;28;20410;-95
2021/05/14 04:20:14;;;;;;;6.32;3.30;;;;;;;10.56;83.92;98264.09;5113080;28;20052;-94
2021/05/14 04:22:40;;;;;;;9.30;3.03;;;;;;;10.55;83.96;98259.69;5113043;28;20043;-93
2021/05/14 04:25:07;;;;;;;6.53;3.03;;;;;;;10.60;84.16;98255.06;5112699;28;20044;-95
2021/05/14 04:27:33;;;;;;;7.75;3.33;;;;;;;10.54;83.47;98244.66;5113003;28;20036;-94
2021/05/14 04:29:59;;;;;;;8.55;3.45;;;;;;;10.43;84.13;98253.00;5112564;28;20097;-94
2021/05/14 04:32:25;;;;;;;9.85;3.80;;;;;;;10.24;84.63;98236.78;5112942;28;20093;-93
2021/05/14 04:34:53;;;;;;;9.18;3.72;;;;;;;10.35;84.47;98252.41;5112809;28;20042;-94
2021/05/14 04:37:19;;;;;;;8.40;3.60;;;;;;;10.40;84.36;98266.38;5112824;28;20040;-95
2021/05/14 04:39:45;;;;;;;8.40;3.30;;;;;;;10.54;83.49;98257.94;5112810;28;20078;-94
2021/05/14 04:42:11;;;;;;;7.28;2.97;;;;;;;10.52;83.25;98242.94;5111914;28;20113;-94
2021/05/14 04:44:37;;;;;;;11.45;3.40;;;;;;;10.48;84.01;98258.16;5112701;28;20057;-94
2021/05/14 04:47:03;;;;;;;10.05;3.13;;;;;;;10.30;84.00;98243.72;5112462;28;20079;-94
2021/05/14 04:49:30;;;;;;;6.13;2.72;;;;;;;10.50;83.66;98261.63;5112748;28;20044;-93
2021/05/14 04:51:56;;;;;;;8.75;2.92;;;;;;;10.36;83.74;98238.19;5112852;28;20054;-94
2021/05/14 04:54:21;;;;;;;6.30;2.50;;;;;;;10.39;83.35;98253.19;5112385;28;20036;-94
2021/05/14 04:56:47;;;;;;;10.00;3.03;;;;;;;10.53;82.91;98273.94;5112227;28;20053;-93
2021/05/14 04:59:13;;;;;;;6.43;2.75;;;;;;;10.39;82.82;98261.16;5111475;28;20075;-93
2021/05/14 05:01:40;;;;;;;7.78;3.13;;;;;;;10.50;83.02;98288.22;5111763;28;20130;-93
2021/05/14 05:04:06;;;;;;;10.50;3.00;;;;;;;10.85;81.77;98278.13;5118864;28;20389;-95
2021/05/14 05:06:34;;;;;;;8.13;3.20;;;;;;;11.45;79.76;98274.13;5111351;28;20046;-95
2021/05/14 05:09:00;;;;;;;10.48;2.97;;;;;;;11.86;76.92;98257.41;5113529;28;20041;-94
2021/05/14 05:11:26;;;;;;;7.65;3.25;;;;;;;12.21;76.28;98276.44;5114075;28;20505;-94
2021/05/14 05:13:51;;;;;;;4.90;2.35;;;;;;;12.65;74.52;98289.72;5112029;28;20050;-95
2021/05/14 05:16:17;;;;;;;8.10;2.92;;;;;;;13.07;72.64;98294.09;5113678;28;20138;-95
2021/05/14 05:18:43;;;;;;;9.07;3.28;;;;;;;13.18;71.76;98280.25;5114106;28;20070;-93
2021/05/14 05:21:09;;;;;;;10.85;3.00;;;;;;;13.39;71.35;98289.97;5114908;28;20036;-93
2021/05/14 05:23:36;;;;;;;10.45;2.88;;;;;;;13.31;70.31;98270.78;5113275;28;20131;-92
2021/05/14 05:26:02;;;;;;;9.18;3.67;;;;;;;13.44;69.42;98284.44;5103464;28;20040;-93
2021/05/14 05:28:29;;;;;;;8.30;2.85;;;;;;;13.46;68.92;98286.09;5099318;28;20051;-92
2021/05/14 05:30:56;;;;;;;8.05;2.75;;;;;;;13.66;70.11;98293.19;5100219;28;20466;-93
2021/05/14 05:33:21;;;;;;;9.93;2.88;;;;;;;13.75;68.38;98281.19;5099795;28;20040;-93
2021/05/14 05:35:47;;;;;;;15.35;4.25;;;;;;;13.82;67.57;98281.75;5100940;28;20050;-93
2021/05/14 05:38:14;;;;;;;9.38;3.00;;;;;;;13.90;66.75;98269.75;5107313;28;20051;-94
2021/05/14 05:40:41;;;;;;;12.82;3.28;;;;;;;13.94;66.73;98292.72;5099161;28;20052;-93
2021/05/14 05:43:07;;;;;;;7.20;2.63;;;;;;;13.83;67.31;98288.81;5099447;28;20051;-93
2021/05/14 05:45:33;;;;;;;9.68;3.15;;;;;;;13.74;67.37;98307.03;5098621;28;20040;-93
2021/05/14 05:47:59;;;;;;;11.25;3.20;;;;;;;13.73;67.75;98293.75;5100743;28;20044;-95
2021/05/14 05:50:25;;;;;;;9.52;2.85;;;;;;;13.93;67.51;98301.69;5098744;28;20142;-94
2021/05/14 05:52:53;;;;;;;8.82;2.63;;;;;;;14.26;66.85;98318.81;5098327;28;20047;-94
2021/05/14 05:55:19;;;;;;;8.68;2.60;;;;;;;14.48;64.31;98298.06;5098414;28;20075;-94
2021/05/14 05:57:46;;;;;;;9.05;2.83;;;;;;;14.69;63.23;98295.31;5098767;28;20036;-93
2021/05/14 06:00:13;;;;;;;9.85;2.65;;;;;;;14.97;64.28;98317.00;5098256;28;20093;-94
2021/05/14 06:02:40;;;;;;;15.23;4.53;;;;;;;14.43;65.38;98313.50;5099609;28;20044;-96
2021/05/14 06:05:08;;;;;;;8.98;2.47;;;;;;;14.27;64.80;98324.13;5098816;28;20044;-95
2021/05/14 06:07:34;;;;;;;9.20;3.33;;;;;;;13.94;66.22;98321.25;5098026;28;20067;-94
2021/05/14 06:10:00;;;;;;;10.55;2.55;;;;;;;13.77;66.48;98335.44;5098400;28;20393;-93
2021/05/14 06:12:26;;;;;;;8.88;3.03;;;;;;;13.72;67.55;98338.28;5098179;28;20024;-94
2021/05/14 06:14:53;;;;;;;8.52;2.33;;;;;;;13.86;69.44;98335.00;5098265;28;20047;-91
2021/05/14 06:17:18;;;;;;;7.80;2.58;;;;;;;14.06;67.38;98315.31;5099591;28;20048;-94
2021/05/14 06:19:48;;;;;;;11.80;2.65;;;;;;;14.18;65.29;98316.50;5101683;28;20063;-94
2021/05/14 06:22:14;;;;;;;8.95;2.55;;;;;;;14.53;64.24;98314.78;5101988;28;20396;-94
2021/05/14 06:24:39;;;;;;;9.50;2.67;;;;;;;15.02;62.87;98330.16;5102556;28;20043;-92
2021/05/14 06:27:06;;;;;;;10.13;3.30;;;;;;;14.60;62.80;98330.56;5102300;28;20587;-94
2021/05/14 06:29:32;;;;;;;14.95;3.38;;;;;;;14.64;64.85;98326.75;5103782;28;20048;-94
2021/05/14 06:31:59;;;;;;;12.00;2.72;;;;;;;14.56;64.26;98322.69;5103857;28;20056;-93
2021/05/14 06:34:26;;;;;;;13.70;2.90;;;;;;;14.60;64.79;98338.59;5103832;28;20081;-95
2021/05/14 06:36:53;;;;;;;14.63;2.83;;;;;;;14.54;64.75;98313.81;5101344;28;20055;-96
2021/05/14 06:39:19;;;;;;;10.35;2.53;;;;;;;14.49;64.36;98325.72;5103275;28;20117;-95
2021/05/14 06:41:45;;;;;;;9.25;2.92;;;;;;;14.80;63.60;98314.34;5100335;28;20134;-95
2021/05/14 06:44:10;;;;;;;9.57;2.97;;;;;;;15.04;62.69;98317.56;5100958;28;20075;-93
2021/05/14 06:46:39;;;;;;;11.30;3.13;;;;;;;15.62;61.48;98324.28;5101981;28;20069;-93
2021/05/14 06:49:07;;;;;;;15.07;3.27;;;;;;;15.82;60.73;98326.75;5100225;28;20036;-93
2021/05/14 06:51:33;;;;;;;12.10;2.70;;;;;;;16.03;59.52;98334.56;5100422;28;20402;-94
2021/05/14 06:53:59;;;;;;;10.07;2.65;;;;;;;16.22;58.73;98313.81;5098087;28;20044;-95
2021/05/14 06:56:25;;;;;;;11.18;2.67;;;;;;;16.70;58.40;98334.31;5098317;28;20051;-94
2021/05/14 06:58:54;;;;;;;11.40;2.60;;;;;;;16.92;56.58;98313.31;5098508;28;20040;-94
2021/05/14 07:01:20;;;;;;;8.38;3.20;;;;;;;16.43;57.61;98330.47;5101500;28;20044;-93
2021/05/14 07:03:46;;;;;;;12.63;2.70;;;;;;;16.37;58.15;98317.41;5101436;28;20044;-93
2021/05/14 07:06:15;;;;;;;11.27;2.35;;;;;;;16.79;56.97;98305.09;5099764;28;20052;-93
2021/05/14 07:08:41;;;;;;;;;;;;;;;17.36;54.69;98328.53;5099947;28;20048;-93
2021/05/14 07:11:07;;;;;;;8.50;2.58;;;;;;;17.33;55.44;98309.94;5100727;28;19926;-94
2021/05/14 07:13:33;;;;;;;9.63;2.50;;;;;;;17.42;55.34;98314.72;5101086;28;20040;-95
2021/05/14 07:15:59;;;;;;;11.57;3.33;;;;;;;17.42;56.19;98306.66;5104625;28;20093;-94
2021/05/14 07:18:25;;;;;;;9.23;2.67;;;;;;;17.25;56.74;98328.34;5099566;28;20392;-94
2021/05/14 07:20:51;;;;;;;12.35;3.28;;;;;;;16.97;56.55;98323.78;5099308;28;20132;-93
2021/05/14 07:23:18;;;;;;;11.75;4.20;;;;;;;16.89;59.24;98334.13;5098682;28;20401;-94
2021/05/14 07:25:44;;;;;;;11.65;3.47;;;;;;;16.76;57.71;98324.09;5102298;28;20048;-94
2021/05/14 07:28:10;;;;;;;12.32;3.10;;;;;;;16.71;57.85;98326.16;5101538;28;20439;-95
2021/05/14 07:30:36;;;;;;;14.25;3.15;;;;;;;16.61;58.41;98311.53;5100259;28;20048;-94
2021/05/14 07:33:02;;;;;;;7.97;2.85;;;;;;;16.82;57.99;98313.00;5099568;28;20048;-94
2021/05/14 07:35:28;;;;;;;6.78;2.70;;;;;;;16.59;58.58;98314.34;5099299;28;20036;-94
2021/05/14 07:37:55;;;;;;;10.13;2.97;;;;;;;16.51;59.57;98326.50;5099060;28;20051;-94
2021/05/14 07:40:22;;;;;;;12.55;3.17;;;;;;;17.00;58.21;98329.84;5101701;28;20046;-93
2021/05/14 07:42:48;;;;;;;15.18;3.50;;;;;;;16.94;59.00;98330.22;5102989;28;20082;-94
2021/05/14 07:45:14;;;;;;;10.57;3.42;;;;;;;16.94;58.24;98307.88;5098148;28;20050;-94
2021/05/14 07:47:40;;;;;;;9.90;3.20;;;;;;;17.08;56.98;98309.69;5097093;28;20135;-94
2021/05/14 07:50:07;;;;;;;16.23;3.42;;;;;;;17.18;58.34;98313.56;5099987;28;20079;-93
2021/05/14 07:52:33;;;;;;;8.13;3.00;;;;;;;17.37;57.63;98314.16;5101062;28;20040;-94
2021/05/14 07:58:02;;;;;;;13.23;4.07;;;;;;;17.68;57.06;98295.25;5144041;27;20350;-94
2021/05/14 08:00:28;;;;;;;11.38;2.90;;;;;;;17.77;56.87;98287.44;5125967;27;20040;-95
2021/05/14 08:02:54;;;;;;;13.65;3.00;;;;;;;17.95;57.29;98288.09;5125473;28;20071;-95
2021/05/14 08:05:20;;;;;;;18.17;3.92;;;;;;;18.00;55.46;98301.25;5124573;28;20485;-96
2021/05/14 08:11:07;;;;;;;9.38;2.60;;;;;;;18.09;52.02;98283.66;5098180;27;20359;-94
2021/05/14 08:13:33;;;;;;;18.85;3.70;;;;;;;18.27;51.97;98271.66;5098376;28;20048;-94
2021/05/14 08:15:59;;;;;;;12.00;2.72;;;;;;;18.36;50.97;98281.81;5098505;28;20048;-94
2021/05/14 08:18:26;;;;;;;12.70;2.70;;;;;;;18.20;52.10;98294.59;5097709;28;20090;-95
2021/05/14 08:20:52;;;;;;;6.80;2.40;;;;;;;18.25;50.74;98293.28;5097279;28;20048;-94
2021/05/14 08:23:20;;;;;;;5.80;2.13;;;;;;;18.26;50.59;98303.13;5097567;28;20054;-93
2021/05/14 08:25:46;;;;;;;11.25;2.22;;;;;;;17.71;50.98;98286.97;5097102;28;20040;-94
2021/05/14 08:28:14;;;;;;;11.70;2.70;;;;;;;18.52;51.47;98305.91;5095210;28;20045;-92
2021/05/14 08:30:40;;;;;;;8.82;2.50;;;;;;;18.82;48.62;98291.34;5092867;28;20028;-94
2021/05/14 08:33:06;;;;;;;8.15;2.67;;;;;;;19.30;47.71;98291.63;5094196;28;20040;-95
2021/05/14 08:35:35;;;;;;;11.68;2.65;;;;;;;18.72;48.79;98298.31;5094467;28;20044;-93
2021/05/14 08:38:00;;;;;;;9.55;2.40;;;;;;;18.80;49.00;98302.25;5095178;28;20423;-95
2021/05/14 08:40:26;;;;;;;8.50;2.53;;;;;;;18.55;49.23;98281.47;5096245;28;20087;-94
2021/05/14 08:42:53;;;;;;;8.50;2.20;;;;;;;18.62;50.12;98282.75;5096166;28;20056;-95
2021/05/14 08:45:19;;;;;;;11.35;3.00;;;;;;;19.08;49.52;98298.53;5096110;28;20554;-89
2021/05/14 08:47:47;;;;;;;11.13;2.45;;;;;;;18.90;48.70;98289.00;5096572;28;20062;-95
2021/05/14 08:50:14;;;;;;;8.98;2.50;;;;;;;18.85;48.31;98280.38;5097652;28;20040;-95
2021/05/14 08:52:42;;;;;;;13.07;3.95;;;;;;;19.20;48.25;98272.53;5099451;28;20044;-95
2021/05/14 08:55:10;;;;;;;8.65;2.38;;;;;;;19.82;47.95;98262.75;5099836;28;20044;-96
2021/05/14 08:57:38;;;;;;;9.38;3.28;;;;;;;19.92;47.34;98261.13;5098384;28;20043;-95
2021/05/14 09:00:05;;;;;;;8.90;2.72;;;;;;;19.11;48.89;98253.47;5095676;28;20045;-94
2021/05/14 09:02:33;;;;;;;9.02;2.60;;;;;;;19.16;49.49;98270.16;5097877;28;20113;-94
2021/05/14 09:05:19;;;;;;;8.40;2.65;;;;;;;20.15;46.20;98247.78;5100422;28;20092;-95
2021/05/14 09:07:45;;;;;;;8.30;2.72;;;;;;;20.29;46.66;98272.75;5098076;28;20127;-93
2021/05/14 09:10:14;;;;;;;10.18;2.70;;;;;;;20.91;45.19;98262.72;5101561;28;20052;-94
2021/05/14 09:12:43;;;;;;;8.85;2.45;;;;;;;21.07;44.20;98238.03;5100553;28;20044;-95
2021/05/14 09:15:21;;;;;;;8.70;2.60;;;;;;;21.11;43.28;98244.94;5099274;28;20573;-92
2021/05/14 09:18:07;;;;;;;8.70;2.63;;;;;;;21.39;41.82;98246.31;5100919;28;20115;-94
2021/05/14 09:20:34;;;;;;;7.72;2.15;;;;;;;21.01;41.52;98244.78;5096790;28;20044;-93
2021/05/14 09:23:01;;;;;;;9.05;2.55;;;;;;;20.64;43.24;98266.53;5084508;28;20083;-93
2021/05/14 09:25:28;;;;;;;10.18;2.40;;;;;;;20.36;40.54;98231.78;5083687;28;20044;-94
2021/05/14 09:27:55;;;;;;;7.50;2.70;;;;;;;20.86;42.40;98235.16;5084619;28;20421;-94
2021/05/14 09:30:21;;;;;;;11.43;2.90;;;;;;;19.71;42.86;98247.34;5081765;28;20561;-91
2021/05/14 09:32:47;;;;;;;7.07;2.10;;;;;;;19.97;42.96;98228.41;5085582;28;20125;-93
2021/05/14 09:35:14;;;;;;;7.78;2.08;;;;;;;20.34;43.36;98248.09;5085234;28;20408;-94
2021/05/14 09:37:48;;;;;;;8.82;2.72;;;;;;;20.21;41.87;98231.97;5082250;28;20053;-96
2021/05/14 09:40:16;;;;;;;7.22;2.10;;;;;;;20.25;39.87;98228.03;5066166;28;20041;-94
2021/05/14 09:42:44;;;;;;;8.50;2.30;;;;;;;20.45;40.33;98228.38;5083724;28;20045;-95
2021/05/14 09:45:21;;;;;;;10.63;2.42;;;;;;;20.88;40.36;98236.81;5083995;28;20096;-93
2021/05/14 09:48:02;;;;;;;8.13;3.33;;;;;;;20.82;40.09;98237.28;5082712;28;20558;-94
2021/05/14 09:50:36;;;;;;;8.27;2.53;;;;;;;21.09;41.16;98226.13;5085133;28;20036;-94
2021/05/14 09:53:11;;;;;;;7.15;2.53;;;;;;;21.05;40.53;98230.03;5084774;28;20551;-95
2021/05/14 09:55:39;;;;;;;6.45;2.20;;;;;;;21.25;39.77;98216.78;5084339;28;20076;-94
2021/05/14 09:58:15;;;;;;;7.15;2.50;;;;;;;21.03;39.95;98237.41;5086252;28;20036;-94
2021/05/14 10:00:42;;;;;;;7.55;2.53;;;;;;;21.19;38.70;98234.38;5084692;28;20482;-95
2021/05/14 10:03:09;;;;;;;7.95;2.40;;;;;;;21.15;39.58;98232.03;5081864;28;20045;-93
2021/05/14 10:05:38;;;;;;;6.82;2.20;;;;;;;20.59;38.97;98244.44;5081942;28;20055;-93
2021/05/14 10:08:05;;;;;;;6.43;2.47;;;;;;;20.13;40.72;98218.19;5081996;28;20071;-95
2021/05/14 10:10:32;;;;;;;6.97;2.42;;;;;;;20.43;38.93;98225.81;5081929;28;20501;-92
2021/05/14 10:12:59;;;;;;;7.45;2.17;;;;;;;20.73;39.80;98237.97;5078790;28;20040;-94
2021/05/14 10:15:26;;;;;;;6.32;2.08;;;;;;;20.76;40.76;98239.59;5080599;28;20463;-94
2021/05/14 10:17:54;;;;;;;9.02;3.05;;;;;;;20.81;39.23;98240.09;5075458;28;20044;-94
2021/05/14 10:20:25;;;;;;;8.57;3.57;;;;;;;20.27;39.94;98222.53;5082058;28;20048;-92
2021/05/14 10:22:53;;;;;;;9.73;2.65;;;;;;;20.64;40.92;98217.06;5085095;28;20055;-95
2021/05/14 10:25:44;;;;;;;10.25;2.53;;;;;;;21.22;40.48;98252.19;5082900;28;20040;-92
2021/05/14 10:28:12;;;;;;;8.93;2.30;;;;;;;21.45;38.91;98209.84;5084770;28;20041;-94
2021/05/14 10:31:14;;;;;;;10.55;2.92;;;;;;;21.93;39.54;98229.31;5084944;28;20036;-94
2021/05/14 10:33:42;;;;;;;6.65;2.20;;;;;;;21.94;38.08;98212.06;5080072;28;20052;-94
2021/05/14 10:36:11;;;;;;;6.72;2.22;;;;;;;21.89;37.92;98211.59;5081017;28;20040;-96
2021/05/14 10:38:39;;;;;;;8.85;2.50;;;;;;;21.90;38.62;98224.19;5082363;28;20162;-94
2021/05/14 10:41:26;;;;;;;9.20;2.55;;;;;;;21.12;41.01;98238.53;5079900;28;20127;-95
2021/05/14 10:44:02;;;;;;;7.37;2.27;;;;;;;20.64;41.40;98217.91;5087333;28;20070;-95
2021/05/14 10:46:29;;;;;;;7.35;2.50;;;;;;;20.34;42.23;98214.84;5086409;28;20285;-95
2021/05/14 10:49:03;;;;;;;8.23;2.80;;;;;;;20.13;43.22;98220.88;5087198;28;20079;-94
2021/05/14 10:52:03;;;;;;;10.73;2.58;;;;;;;20.02;43.84;98240.59;5086801;28;20532;-93
2021/05/14 10:54:49;;;;;;;4.53;1.85;;;;;;;19.15;43.49;98206.44;5083873;28;20044;-95
2021/05/14 10:57:47;;;;;;;8.77;2.78;;;;;;;19.00;44.79;98248.81;5084223;28;20040;-94
2021/05/14 11:00:31;;;;;;;10.20;2.50;;;;;;;19.11;43.59;98207.66;5086038;28;20098;-95
2021/05/14 11:03:17;;;;;;;7.32;2.22;;;;;;;19.56;43.38;98229.56;5084166;28;20045;-96
2021/05/14 11:05:47;;;;;;;6.45;2.20;;;;;;;19.45;42.86;98206.94;5079427;28;20040;-96
2021/05/14 11:08:39;;;;;;;9.25;2.72;;;;;;;19.71;41.72;98239.25;5084662;28;20076;-94
2021/05/14 11:14:19;;;;;;;5.90;1.90;;;;;;;19.98;40.65;98222.03;5186783;27;20347;-96
2021/05/14 11:16:46;;;;;;;8.57;2.75;;;;;;;19.84;40.97;98231.13;5183815;27;20054;-95
2021/05/14 11:19:18;;;;;;;6.10;2.03;;;;;;;19.76;41.01;98223.63;5183012;27;20070;-94
2021/05/14 11:22:05;;;;;;;6.03;2.28;;;;;;;19.64;40.66;98227.16;5180152;27;20035;-95
2021/05/14 11:24:35;;;;;;;4.22;1.80;;;;;;;19.73;41.30;98225.66;5183702;27;20050;-96
2021/05/14 11:27:07;;;;;;;5.93;1.88;;;;;;;19.38;40.60;98229.91;5175113;27;20066;-95
2021/05/14 11:29:37;;;;;;;4.43;1.83;;;;;;;19.49;41.11;98223.75;5181810;27;20031;-95
2021/05/14 11:32:25;;;;;;;7.88;2.72;;;;;;;19.83;40.79;98226.72;5186789;27;20121;-94
2021/05/14 11:35:04;;;;;;;6.88;2.47;;;;;;;19.77;40.66;98233.41;5179598;27;20043;-95
2021/05/14 11:37:32;;;;;;;5.93;2.28;;;;;;;20.21;40.29;98233.78;5180388;27;20039;-95
2021/05/14 11:40:05;;;;;;;8.45;2.15;;;;;;;20.45;40.17;98231.06;5180836;27;20059;-94
2021/05/14 11:42:31;;;;;;;8.75;2.55;;;;;;;20.65;40.70;98251.22;5179617;27;20503;-95
2021/05/14 11:45:09;;;;;;;8.25;2.25;;;;;;;20.56;40.27;98244.66;5180412;27;20068;-96
2021/05/14 11:47:43;;;;;;;7.95;2.30;;;;;;;20.66;39.93;98224.06;5184963;27;20048;-96
2021/05/14 11:50:10;;;;;;;8.57;3.50;;;;;;;20.36;40.63;98218.28;5182532;27;20633;-96